Time;durP1;ratioP1;P1;durP2;ratioP2;P2;SDS_P1;SDS_P2;PMS_P1;PMS_P2;Temp;Humidity;BMP_temperature;BMP_pressure;BME280_temperature;BME280_humidity;BME280_pressure;Samples;Min_cycle;Max_cycle;Signal;HPM_P1;HPM_P2
2022/12/19 00:01:43;;;;;;;23.35;13.30;;;0.90;99.90;;;;;;5149812;27;20546;-70
2022/12/19 00:04:14;;;;;;;18.45;11.07;;;1.00;99.90;;;;;;5150810;27;20235;-71
2022/12/19 00:06:41;;;;;;;22.30;10.13;;;1.00;99.90;;;;;;5148501;27;20189;-70
2022/12/19 00:09:08;;;;;;;12.25;8.82;;;1.10;99.90;;;;;;5151379;27;20295;-70
2022/12/19 00:11:35;;;;;;;20.08;11.90;;;1.10;99.90;;;;;;5147195;27;20211;-70
2022/12/19 00:14:03;;;;;;;23.48;12.20;;;1.20;99.90;;;;;;5142321;27;20311;-71
2022/12/19 00:16:31;;;;;;;23.58;12.02;;;1.20;99.90;;;;;;5155861;27;20279;-69
2022/12/19 00:18:59;;;;;;;19.70;12.65;;;1.20;99.90;;;;;;5137329;27;20295;-70
2022/12/19 00:21:29;;;;;;;22.02;13.45;;;1.20;99.90;;;;;;5143324;27;20670;-71
2022/12/19 00:23:57;;;;;;;16.83;11.52;;;1.10;99.90;;;;;;5145404;27;20196;-68
2022/12/19 00:26:25;;;;;;;16.77;11.13;;;1.20;99.90;;;;;;5146745;27;20203;-69
2022/12/19 00:28:54;;;;;;;19.88;13.48;;;1.30;99.90;;;;;;5144241;27;20256;-72
2022/12/19 00:31:23;;;;;;;15.57;11.93;;;1.30;99.90;;;;;;5138785;27;20617;-71
2022/12/19 00:33:50;;;;;;;24.88;13.70;;;1.40;99.90;;;;;;5147198;27;20232;-73
2022/12/19 00:36:19;;;;;;;19.17;12.15;;;1.40;99.90;;;;;;5147077;27;20213;-71
2022/12/19 00:38:47;;;;;;;18.60;12.32;;;1.50;99.90;;;;;;5148210;27;20280;-70
2022/12/19 00:41:15;;;;;;;20.65;12.90;;;1.50;99.90;;;;;;5152555;27;20227;-71
2022/12/19 00:43:43;;;;;;;25.23;13.25;;;1.50;99.90;;;;;;5155586;27;20288;-70
2022/12/19 00:46:13;;;;;;;23.00;12.80;;;1.50;99.90;;;;;;5142845;27;20207;-69
2022/12/19 00:48:43;;;;;;;18.15;12.43;;;1.60;99.90;;;;;;5155241;27;20297;-70
2022/12/19 00:51:12;;;;;;;25.13;14.55;;;1.60;99.90;;;;;;5153308;27;20196;-69
2022/12/19 00:53:39;;;;;;;27.83;15.30;;;1.60;99.90;;;;;;5149855;27;20283;-70
2022/12/19 00:56:10;;;;;;;22.67;13.55;;;1.60;99.90;;;;;;5149352;27;20242;-70
2022/12/19 00:58:37;;;;;;;28.13;14.88;;;1.70;99.90;;;;;;5155815;27;20203;-72
2022/12/19 01:01:06;;;;;;;23.48;14.20;;;1.70;99.90;;;;;;5146793;27;20219;-70
2022/12/19 01:03:33;;;;;;;26.45;15.40;;;1.60;99.90;;;;;;5154825;27;20660;-70
2022/12/19 01:06:01;;;;;;;27.05;16.15;;;1.60;99.90;;;;;;5154175;27;20567;-70
2022/12/19 01:08:28;;;;;;;26.45;15.43;;;1.60;99.90;;;;;;5153910;27;20666;-70
2022/12/19 01:10:55;;;;;;;22.25;16.08;;;1.70;99.90;;;;;;5144179;27;20631;-71
2022/12/19 01:13:22;;;;;;;27.75;16.08;;;1.80;99.90;;;;;;5148282;27;20194;-70
2022/12/19 01:15:49;;;;;;;30.05;15.80;;;1.60;99.90;;;;;;5147829;27;20253;-69
2022/12/19 01:18:16;;;;;;;33.05;18.60;;;1.60;99.90;;;;;;5148604;27;20233;-70
2022/12/19 01:20:46;;;;;;;33.22;16.88;;;1.60;99.90;;;;;;5147043;27;20224;-70
2022/12/19 01:23:16;;;;;;;29.35;18.65;;;1.60;99.90;;;;;;5136579;27;20220;-69
2022/12/19 01:25:48;;;;;;;27.05;16.45;;;1.70;99.90;;;;;;5142304;27;20204;-71
2022/12/19 01:28:15;;;;;;;31.63;18.48;;;1.70;99.90;;;;;;5154863;27;20199;-72
2022/12/19 01:30:42;;;;;;;30.38;15.73;;;1.60;99.90;;;;;;5146862;27;20220;-71
2022/12/19 01:33:11;;;;;;;34.22;18.17;;;1.70;99.90;;;;;;5143770;27;20558;-69
2022/12/19 01:35:38;;;;;;;31.20;17.73;;;1.70;99.90;;;;;;5142911;27;20249;-73
2022/12/19 01:38:06;;;;;;;33.15;19.40;;;1.70;99.90;;;;;;5150817;27;20189;-71
2022/12/19 01:40:36;;;;;;;26.95;15.95;;;1.70;99.90;;;;;;5142729;27;20283;-72
2022/12/19 01:43:03;;;;;;;30.02;17.33;;;1.80;99.90;;;;;;5145915;27;20283;-73
2022/12/19 01:45:31;;;;;;;30.90;18.13;;;1.80;99.90;;;;;;5140406;27;20195;-71
2022/12/19 01:48:06;;;;;;;32.58;17.15;;;1.90;99.90;;;;;;5139283;27;20597;-71
2022/12/19 01:50:37;;;;;;;33.22;17.58;;;1.70;99.90;;;;;;5121574;28;20257;-71
2022/12/19 01:53:07;;;;;;;30.48;17.33;;;1.80;99.90;;;;;;5140949;27;20565;-72
2022/12/19 01:55:37;;;;;;;30.35;17.90;;;1.80;99.90;;;;;;5141253;27;20220;-70
2022/12/19 01:58:04;;;;;;;31.40;18.30;;;1.80;99.90;;;;;;5141696;27;20624;-70
2022/12/19 02:00:32;;;;;;;31.55;18.30;;;1.80;99.90;;;;;;5140207;27;20307;-70
2022/12/19 02:03:05;;;;;;;28.20;20.25;;;1.80;99.90;;;;;;5154438;27;20545;-70
2022/12/19 02:05:32;;;;;;;34.92;19.13;;;1.90;99.90;;;;;;5154155;27;20196;-70
2022/12/19 02:08:01;;;;;;;32.78;18.20;;;1.90;99.90;;;;;;5148964;27;20199;-71
2022/12/19 02:10:28;;;;;;;31.30;19.42;;;1.80;99.90;;;;;;5150158;27;20212;-71
2022/12/19 02:12:56;;;;;;;30.48;18.23;;;1.80;99.90;;;;;;5146426;27;20215;-71
2022/12/19 02:15:25;;;;;;;30.88;17.70;;;1.80;99.90;;;;;;5142645;27;20227;-71
2022/12/19 02:18:08;;;;;;;33.42;18.88;;;1.80;99.90;;;;;;5143266;27;20222;-71
2022/12/19 02:21:04;;;;;;;32.88;19.17;;;1.80;99.90;;;;;;5139220;27;20224;-70
2022/12/19 02:24:01;;;;;;;29.15;17.77;;;1.80;99.90;;;;;;5120895;28;20654;-71
2022/12/19 02:27:00;;;;;;;36.75;19.08;;;1.80;99.90;;;;;;5143760;27;20227;-70
2022/12/19 02:29:54;;;;;;;34.88;20.27;;;1.90;99.90;;;;;;5142787;27;20240;-72
2022/12/19 02:32:31;;;;;;;31.15;20.23;;;1.80;99.90;;;;;;5126251;27;20201;-71
2022/12/19 02:35:06;;;;;;;31.77;18.15;;;1.90;99.90;;;;;;5149229;27;20272;-71
2022/12/19 02:37:35;;;;;;;30.92;18.33;;;1.90;99.90;;;;;;5132761;27;20200;-70
2022/12/19 02:40:09;;;;;;;37.28;19.15;;;1.90;99.90;;;;;;5153404;27;20248;-71
2022/12/19 02:42:42;;;;;;;31.45;20.55;;;1.90;99.90;;;;;;5162440;27;20284;-71
2022/12/19 02:45:14;;;;;;;28.75;18.17;;;1.90;99.90;;;;;;5138346;27;20196;-72
2022/12/19 02:47:43;;;;;;;33.15;19.15;;;2.00;99.90;;;;;;5157673;27;20292;-72
2022/12/19 02:50:12;;;;;;;33.97;18.33;;;2.00;99.90;;;;;;5144972;27;20256;-71
2022/12/19 02:52:47;;;;;;;34.58;20.05;;;2.00;99.90;;;;;;5149459;27;20662;-71
2022/12/19 02:55:20;;;;;;;34.78;20.30;;;2.00;99.90;;;;;;5150071;27;20227;-71
2022/12/19 02:58:03;;;;;;;33.25;19.45;;;2.10;99.90;;;;;;5148835;27;20196;-69
2022/12/19 03:00:32;;;;;;;33.80;20.30;;;2.00;99.90;;;;;;5151037;27;20230;-72
2022/12/19 03:03:11;;;;;;;39.30;22.13;;;2.10;99.90;;;;;;5148844;27;20231;-72
2022/12/19 03:05:48;;;;;;;28.33;17.23;;;2.10;99.90;;;;;;5153341;22;20228;-83
2022/12/19 03:08:23;;;;;;;30.38;17.83;;;2.20;99.90;;;;;;5133709;28;20271;-82
2022/12/19 03:10:57;;;;;;;34.97;18.80;;;2.30;99.90;;;;;;5131901;28;20242;-82
2022/12/19 03:13:34;;;;;;;35.92;19.85;;;2.20;99.90;;;;;;5133962;28;20205;-83
2022/12/19 03:16:03;;;;;;;34.92;19.13;;;2.10;99.90;;;;;;5108393;28;20237;-83
2022/12/19 03:18:32;;;;;;;35.78;19.58;;;2.20;99.90;;;;;;5114457;28;20198;-83
2022/12/19 03:21:06;;;;;;;34.35;20.13;;;2.30;99.90;;;;;;5115851;28;20182;-83
2022/12/19 03:23:34;;;;;;;29.52;19.63;;;2.20;99.90;;;;;;5107281;28;20385;-84
2022/12/19 03:26:06;;;;;;;38.70;19.83;;;2.30;99.90;;;;;;5111822;28;20218;-83
2022/12/19 03:28:43;;;;;;;32.35;17.95;;;2.30;99.90;;;;;;5108662;28;20194;-83
2022/12/19 03:31:12;;;;;;;30.45;19.70;;;2.30;99.90;;;;;;5107197;28;20257;-83
2022/12/19 03:33:42;;;;;;;32.40;19.67;;;2.40;99.90;;;;;;5112762;28;20218;-83
2022/12/19 03:36:12;;;;;;;34.20;18.50;;;2.40;99.90;;;;;;5113549;28;20214;-83
2022/12/19 03:38:43;;;;;;;41.42;21.23;;;2.50;99.90;;;;;;5096249;28;20345;-83
2022/12/19 03:41:12;;;;;;;28.63;17.40;;;2.50;99.90;;;;;;5108348;28;20277;-83
2022/12/19 03:43:41;;;;;;;34.83;19.98;;;2.50;99.90;;;;;;5107197;28;20296;-83
2022/12/19 03:46:15;;;;;;;37.35;19.92;;;2.40;99.90;;;;;;5095544;28;20224;-83
2022/12/19 03:48:46;;;;;;;34.83;18.27;;;2.50;99.90;;;;;;5109275;28;20281;-83
2022/12/19 03:51:21;;;;;;;37.88;19.15;;;2.50;99.90;;;;;;5112214;28;20178;-83
2022/12/19 03:53:58;;;;;;;33.90;18.48;;;2.50;99.90;;;;;;5115866;28;20217;-83
2022/12/19 03:56:31;;;;;;;38.40;20.25;;;2.60;99.90;;;;;;5108115;28;20646;-83
2022/12/19 03:59:04;;;;;;;32.75;18.85;;;2.60;99.90;;;;;;5104457;28;20230;-84
2022/12/19 04:01:33;;;;;;;31.83;19.08;;;2.60;99.90;;;;;;5096301;28;20203;-84
2022/12/19 04:04:03;;;;;;;29.90;18.30;;;2.70;99.90;;;;;;5107333;28;20296;-84
2022/12/19 04:06:33;;;;;;;28.67;17.60;;;2.80;99.90;;;;;;5120897;28;20215;-83
2022/12/19 04:09:01;;;;;;;37.45;20.90;;;2.80;99.90;;;;;;5117366;28;20265;-84
2022/12/19 04:11:31;;;;;;;33.53;19.63;;;2.70;99.90;;;;;;5116640;28;20198;-83
2022/12/19 04:14:03;;;;;;;33.17;19.42;;;2.80;99.90;;;;;;5120945;28;21803;-83
2022/12/19 04:16:39;;;;;;;32.25;19.35;;;2.70;99.90;;;;;;5111374;28;20193;-83
2022/12/19 04:19:15;;;;;;;34.95;21.35;;;2.70;99.90;;;;;;5113919;28;20189;-83
2022/12/19 04:21:47;;;;;;;30.83;19.38;;;2.80;99.90;;;;;;5120807;28;20248;-83
2022/12/19 04:24:19;;;;;;;31.27;17.33;;;2.90;99.90;;;;;;5135767;28;20232;-82
2022/12/19 04:26:49;;;;;;;35.45;19.90;;;2.80;99.90;;;;;;5137699;28;20197;-82
2022/12/19 04:29:25;;;;;;;37.80;20.80;;;2.80;99.90;;;;;;5138818;28;20178;-82
2022/12/19 04:31:52;;;;;;;30.98;19.17;;;2.80;99.90;;;;;;5137013;28;20197;-81
2022/12/19 04:34:21;;;;;;;35.53;20.63;;;3.00;99.90;;;;;;5131222;27;20229;-82
2022/12/19 04:36:50;;;;;;;31.60;19.27;;;2.90;99.90;;;;;;5137055;28;20202;-82
2022/12/19 04:39:16;;;;;;;36.53;21.25;;;2.90;99.90;;;;;;5133719;28;20225;-81
2022/12/19 04:41:43;;;;;;;36.80;20.20;;;3.00;99.90;;;;;;5136969;28;20221;-82
2022/12/19 04:44:10;;;;;;;39.72;22.08;;;2.90;99.90;;;;;;5137773;28;20265;-82
2022/12/19 04:46:37;;;;;;;37.58;19.25;;;3.00;99.90;;;;;;5135779;28;20209;-83
2022/12/19 04:49:04;;;;;;;36.13;19.92;;;3.20;99.90;;;;;;5130382;28;20193;-82
2022/12/19 04:51:32;;;;;;;34.13;21.95;;;3.10;99.90;;;;;;5132069;28;20208;-83
2022/12/19 04:53:59;;;;;;;35.35;21.40;;;3.00;99.90;;;;;;5124326;28;20213;-83
2022/12/19 04:56:26;;;;;;;36.42;20.67;;;3.00;99.90;;;;;;5127633;28;20221;-82
2022/12/19 04:58:57;;;;;;;40.28;20.27;;;3.00;99.90;;;;;;5123767;28;20213;-82
2022/12/19 05:01:24;;;;;;;37.55;20.92;;;3.00;99.90;;;;;;5132341;28;20197;-82
2022/12/19 05:03:51;;;;;;;38.13;20.30;;;3.10;99.90;;;;;;5129631;28;20320;-83
2022/12/19 05:06:19;;;;;;;32.42;21.15;;;3.00;99.90;;;;;;5129781;28;20709;-83
2022/12/19 05:08:47;;;;;;;33.80;20.42;;;3.10;99.90;;;;;;5122294;28;20216;-83
2022/12/19 05:11:16;;;;;;;32.85;20.40;;;3.20;99.90;;;;;;5120795;28;20277;-83
2022/12/19 05:13:43;;;;;;;44.67;21.35;;;3.10;99.90;;;;;;5125714;28;20225;-82
2022/12/19 05:16:12;;;;;;;34.35;20.17;;;3.00;99.90;;;;;;5111712;28;20198;-83
2022/12/19 05:18:39;;;;;;;36.92;20.98;;;3.20;99.90;;;;;;5122609;28;20264;-83
2022/12/19 05:21:06;;;;;;;34.45;19.70;;;3.20;99.90;;;;;;5118050;28;20240;-83
2022/12/19 05:23:33;;;;;;;30.35;19.20;;;3.10;99.90;;;;;;5123359;28;20257;-83
2022/12/19 05:26:02;;;;;;;36.45;20.45;;;3.10;99.90;;;;;;5122942;28;20217;-83
2022/12/19 05:28:30;;;;;;;36.30;20.00;;;3.10;99.90;;;;;;5121780;28;20204;-84
2022/12/19 05:31:03;;;;;;;32.58;19.33;;;3.20;99.90;;;;;;5117472;28;20293;-84
2022/12/19 05:33:30;;;;;;;36.53;20.65;;;3.30;99.90;;;;;;5116020;28;20196;-84
2022/12/19 05:35:57;;;;;;;38.00;21.30;;;3.20;99.90;;;;;;5116328;28;20194;-83
2022/12/19 05:38:25;;;;;;;34.63;20.10;;;3.20;99.90;;;;;;5111757;28;20286;-83
2022/12/19 05:40:52;;;;;;;37.42;21.30;;;3.30;99.90;;;;;;5113357;28;20206;-83
2022/12/19 05:43:20;;;;;;;40.65;22.75;;;3.30;99.90;;;;;;5119875;28;20284;-83
2022/12/19 05:45:47;;;;;;;41.53;22.25;;;3.30;99.90;;;;;;5106196;28;20225;-83
2022/12/19 05:48:14;;;;;;;37.38;20.85;;;3.30;99.90;;;;;;5122680;28;20205;-83
2022/12/19 05:50:41;;;;;;;29.92;18.55;;;3.20;99.90;;;;;;5119775;28;20205;-83
2022/12/19 05:53:08;;;;;;;35.00;18.88;;;3.30;99.90;;;;;;5121021;28;20209;-83
2022/12/19 05:55:35;;;;;;;38.00;21.48;;;3.50;99.90;;;;;;5118933;28;20296;-82
2022/12/19 05:58:02;;;;;;;37.53;21.58;;;3.20;99.90;;;;;;5120007;28;20247;-82
2022/12/19 06:00:30;;;;;;;29.52;19.42;;;3.20;99.90;;;;;;5124661;28;20197;-83
2022/12/19 06:02:57;;;;;;;32.60;20.27;;;3.30;99.90;;;;;;5119702;28;20213;-83
2022/12/19 06:05:24;;;;;;;34.38;20.63;;;3.40;99.90;;;;;;5120845;28;20394;-83
2022/12/19 06:07:51;;;;;;;33.47;20.58;;;3.30;99.90;;;;;;5116662;28;20288;-83
2022/12/19 06:10:17;;;;;;;39.30;20.55;;;3.40;99.90;;;;;;5120355;28;20235;-84
2022/12/19 06:12:44;;;;;;;35.97;22.23;;;3.40;99.90;;;;;;5115510;28;20197;-83
2022/12/19 06:15:12;;;;;;;29.35;19.52;;;3.40;99.90;;;;;;5119295;28;20249;-83
2022/12/19 06:17:40;;;;;;;44.28;20.48;;;3.50;99.90;;;;;;5121040;28;20225;-83
2022/12/19 06:20:08;;;;;;;32.17;20.48;;;3.50;99.90;;;;;;5125096;28;20264;-82
2022/12/19 06:22:35;;;;;;;33.47;20.92;;;3.50;99.90;;;;;;5121211;28;20205;-83
2022/12/19 06:25:01;;;;;;;35.33;20.52;;;3.50;99.90;;;;;;5124779;28;20252;-84
2022/12/19 06:27:28;;;;;;;34.17;22.35;;;3.50;99.90;;;;;;5126993;28;20249;-84
2022/12/19 06:29:55;;;;;;;34.05;20.13;;;3.50;99.90;;;;;;5125088;28;20280;-84
2022/12/19 06:32:22;;;;;;;31.48;19.88;;;3.50;99.90;;;;;;5122569;28;20202;-85
2022/12/19 06:34:50;;;;;;;39.72;22.88;;;3.50;99.90;;;;;;5126255;28;20660;-83
2022/12/19 06:37:17;;;;;;;40.83;21.73;;;3.50;99.90;;;;;;5124011;28;20212;-83
2022/12/19 06:39:43;;;;;;;36.60;23.10;;;3.60;99.90;;;;;;5138587;28;20263;-83
2022/12/19 06:42:21;;;;;;;31.27;20.10;;;3.60;99.90;;;;;;5136875;28;20186;-83
2022/12/19 06:44:48;;;;;;;38.88;22.40;;;3.70;99.90;;;;;;5133037;27;20221;-84
2022/12/19 06:47:15;;;;;;;38.58;22.55;;;3.60;99.90;;;;;;5121815;28;20639;-84
2022/12/19 06:49:42;;;;;;;41.13;23.20;;;3.60;99.90;;;;;;5125250;28;20293;-84
2022/12/19 06:52:11;;;;;;;44.28;24.30;;;3.60;99.90;;;;;;5123899;28;20205;-84
2022/12/19 06:54:37;;;;;;;33.88;20.55;;;3.60;99.90;;;;;;5126219;28;20762;-83
2022/12/19 06:57:04;;;;;;;40.95;23.27;;;3.60;99.90;;;;;;5125490;28;20257;-84
2022/12/19 06:59:31;;;;;;;35.22;23.05;;;3.60;99.90;;;;;;5124784;28;20233;-83
2022/12/19 07:02:00;;;;;;;39.15;21.77;;;3.60;99.90;;;;;;5133985;28;20206;-83
2022/12/19 07:04:31;;;;;;;36.75;22.20;;;3.60;99.90;;;;;;5132803;28;20252;-83
2022/12/19 07:06:58;;;;;;;37.08;22.60;;;3.70;99.90;;;;;;5129761;28;20708;-84
2022/12/19 07:09:28;;;;;;;38.78;21.65;;;3.60;99.90;;;;;;5125475;28;20202;-84
2022/12/19 07:11:55;;;;;;;39.58;21.52;;;3.60;99.90;;;;;;5121564;28;20201;-84
2022/12/19 07:14:22;;;;;;;43.30;23.17;;;3.60;99.90;;;;;;5131280;28;20233;-84
2022/12/19 07:16:51;;;;;;;38.53;22.33;;;3.70;99.90;;;;;;5133949;28;20225;-83
2022/12/19 07:19:19;;;;;;;44.05;23.98;;;3.60;99.90;;;;;;5130649;28;20212;-84
2022/12/19 07:21:46;;;;;;;45.40;24.45;;;3.60;99.90;;;;;;5130756;27;20210;-83
2022/12/19 07:24:16;;;;;;;43.47;24.35;;;3.60;99.90;;;;;;5134845;27;20229;-84
2022/12/19 07:26:45;;;;;;;39.00;23.60;;;3.60;99.90;;;;;;5130187;28;20227;-82
2022/12/19 07:29:13;;;;;;;35.33;22.60;;;3.60;99.90;;;;;;5126295;28;20211;-83
2022/12/19 07:31:39;;;;;;;46.88;24.40;;;3.70;99.90;;;;;;5122773;28;20653;-84
2022/12/19 07:34:06;;;;;;;37.88;23.92;;;3.80;99.90;;;;;;5125719;28;20308;-82
2022/12/19 07:36:33;;;;;;;47.95;23.85;;;3.80;99.90;;;;;;5123696;28;20197;-82
2022/12/19 07:39:00;;;;;;;39.30;23.80;;;3.80;99.90;;;;;;5118941;28;20201;-84
2022/12/19 07:41:27;;;;;;;48.47;25.15;;;3.80;99.90;;;;;;5121768;27;20204;-84
2022/12/19 07:43:55;;;;;;;41.15;24.85;;;3.80;99.90;;;;;;5123086;28;20657;-85
2022/12/19 07:46:22;;;;;;;49.22;24.42;;;3.80;99.90;;;;;;5124652;28;20261;-83
2022/12/19 07:48:49;;;;;;;40.45;23.80;;;4.00;99.90;;;;;;5128301;28;20662;-83
2022/12/19 07:51:16;;;;;;;41.28;22.90;;;3.90;99.90;;;;;;5121933;28;20217;-87
2022/12/19 07:53:43;;;;;;;41.55;23.02;;;3.90;99.90;;;;;;5127541;28;20201;-87
2022/12/19 07:56:10;;;;;;;44.63;25.17;;;3.90;99.90;;;;;;5127335;28;20680;-82
2022/12/19 07:58:37;;;;;;;36.00;22.25;;;3.90;99.90;;;;;;5128074;28;20709;-83
2022/12/19 08:01:06;;;;;;;46.08;22.92;;;3.80;99.90;;;;;;5119857;28;20261;-85
2022/12/19 08:03:34;;;;;;;45.03;24.08;;;3.80;99.90;;;;;;5133383;28;20209;-84
2022/12/19 08:06:03;;;;;;;48.10;30.67;;;3.80;99.90;;;;;;5137301;28;20190;-83
2022/12/19 08:08:30;;;;;;;37.15;24.08;;;3.70;99.90;;;;;;5137563;28;20256;-84
2022/12/19 08:10:57;;;;;;;37.53;24.20;;;3.70;99.90;;;;;;5137434;27;20201;-84
2022/12/19 08:13:50;;;;;;;39.17;25.35;;;3.80;99.90;;;;;;5135929;28;20204;-85
2022/12/19 08:16:18;;;;;;;48.38;26.92;;;3.80;99.90;;;;;;5121576;27;20206;-84
2022/12/19 08:18:46;;;;;;;45.40;26.40;;;3.80;99.90;;;;;;5134508;27;20253;-85
2022/12/19 08:21:14;;;;;;;42.65;26.02;;;3.60;99.90;;;;;;5136637;27;20201;-87
2022/12/19 08:26:24;;;;;;;42.20;25.17;;;3.80;99.90;;;;;;5136708;27;20189;-86
2022/12/19 08:28:55;;;;;;;48.83;25.20;;;3.80;99.90;;;;;;5130949;27;20253;-88
2022/12/19 08:31:25;;;;;;;46.53;26.60;;;3.80;99.90;;;;;;5138427;27;20208;-83
2022/12/19 08:33:52;;;;;;;52.70;27.27;;;3.80;99.90;;;;;;5150649;27;20205;-85
2022/12/19 08:36:20;;;;;;;50.50;26.45;;;3.80;99.90;;;;;;5137389;28;20748;-84
2022/12/19 08:38:58;;;;;;;49.85;25.80;;;3.80;99.90;;;;;;5130561;28;20193;-84
2022/12/19 08:41:28;;;;;;;47.08;27.48;;;3.90;99.90;;;;;;5131937;28;20245;-84
2022/12/19 08:44:01;;;;;;;43.25;25.38;;;3.90;99.90;;;;;;5137576;28;20205;-84
2022/12/19 08:46:30;;;;;;;51.15;26.88;;;3.90;99.90;;;;;;5130707;28;20704;-83
2022/12/19 08:48:57;;;;;;;50.95;27.80;;;3.90;99.90;;;;;;5130343;27;20209;-83
2022/12/19 08:51:25;;;;;;;45.60;26.48;;;3.90;99.90;;;;;;5126932;27;20211;-83
2022/12/19 08:53:52;;;;;;;52.33;29.58;;;3.90;99.90;;;;;;5116276;28;20229;-83
2022/12/19 08:56:24;;;;;;;49.60;28.48;;;4.00;99.90;;;;;;5120876;27;20227;-82
2022/12/19 08:58:52;;;;;;;54.58;31.90;;;4.00;99.90;;;;;;5114476;28;20206;-83
2022/12/19 09:01:22;;;;;;;50.50;29.10;;;4.00;99.90;;;;;;5120530;28;20198;-82
2022/12/19 09:06:19;;;;;;;47.53;27.90;;;4.10;99.90;;;;;;5132961;27;20204;-84
2022/12/19 09:08:46;;;;;;;63.55;29.95;;;4.00;99.90;;;;;;5130187;28;20218;-86
2022/12/19 09:11:14;;;;;;;58.95;29.98;;;4.00;99.90;;;;;;5132164;28;20220;-84
2022/12/19 09:13:43;;;;;;;56.00;32.05;;;4.00;99.90;;;;;;5132364;28;20208;-83
2022/12/19 09:16:13;;;;;;;47.45;27.23;;;4.00;99.90;;;;;;5105482;28;20203;-83
2022/12/19 09:18:41;;;;;;;53.60;26.90;;;4.10;99.90;;;;;;5105083;28;20202;-83
2022/12/19 09:21:13;;;;;;;54.95;26.40;;;4.00;99.90;;;;;;5108853;28;20210;-83
2022/12/19 09:23:42;;;;;;;64.00;32.75;;;4.00;99.90;;;;;;5107988;28;20202;-83
2022/12/19 09:26:12;;;;;;;65.05;31.92;;;4.00;99.90;;;;;;5105551;28;20198;-83
2022/12/19 09:28:40;;;;;;;47.33;26.75;;;4.00;99.90;;;;;;5111575;28;20222;-83
2022/12/19 09:31:10;;;;;;;62.55;32.42;;;4.10;99.90;;;;;;5112040;28;20219;-85
2022/12/19 09:33:38;;;;;;;56.75;29.25;;;4.10;99.90;;;;;;5105505;28;20200;-83
2022/12/19 09:36:11;;;;;;;65.50;32.72;;;4.10;99.90;;;;;;5111796;28;20247;-82
2022/12/19 09:38:43;;;;;;;51.25;27.02;;;4.10;99.90;;;;;;5103396;28;20206;-83
2022/12/19 09:41:39;;;;;;;50.78;28.15;;;4.30;99.90;;;;;;5115080;28;20226;-83
2022/12/19 09:44:18;;;;;;;62.85;31.48;;;4.20;99.90;;;;;;5102273;28;20203;-83
2022/12/19 09:46:49;;;;;;;44.95;27.48;;;4.20;99.90;;;;;;5104155;28;20211;-83
2022/12/19 09:49:19;;;;;;;54.47;27.70;;;4.30;99.90;;;;;;5112547;28;20198;-83
2022/12/19 09:51:53;;;;;;;50.53;28.08;;;4.20;99.90;;;;;;5117576;28;20182;-83
2022/12/19 09:54:27;;;;;;;56.22;29.02;;;4.40;99.90;;;;;;5117648;28;20223;-82
2022/12/19 09:56:59;;;;;;;53.53;29.38;;;4.40;99.90;;;;;;5117870;28;20179;-82
2022/12/19 09:59:32;;;;;;;67.82;30.73;;;4.50;99.90;;;;;;5117611;28;20190;-82
2022/12/19 10:02:04;;;;;;;49.45;27.52;;;4.60;99.90;;;;;;5117718;28;20171;-86
2022/12/19 10:04:35;;;;;;;48.15;27.88;;;4.60;99.90;;;;;;5096573;28;20218;-84
2022/12/19 10:07:02;;;;;;;49.03;29.15;;;4.70;99.90;;;;;;5096066;28;20213;-84
2022/12/19 10:09:34;;;;;;;43.55;25.73;;;4.70;99.90;;;;;;5109478;28;20190;-82
2022/12/19 10:12:19;;;;;;;37.70;24.85;;;4.80;99.90;;;;;;5109870;28;20196;-83
2022/12/19 10:15:00;;;;;;;40.55;24.95;;;4.90;99.90;;;;;;5101339;28;20218;-87
2022/12/19 10:17:38;;;;;;;36.47;24.02;;;5.00;99.90;;;;;;5108531;28;20195;-84
2022/12/19 10:20:21;;;;;;;39.67;24.90;;;5.10;99.90;;;;;;5107365;28;20205;-86
2022/12/19 10:23:01;;;;;;;44.95;26.05;;;5.20;99.90;;;;;;5111282;28;20220;-86
2022/12/19 10:25:50;;;;;;;39.28;23.02;;;5.20;99.90;;;;;;5108582;28;20214;-86
2022/12/19 10:28:31;;;;;;;35.17;23.98;;;5.20;99.90;;;;;;5093185;28;20585;-85
2022/12/19 10:31:09;;;;;;;33.42;23.77;;;5.30;99.90;;;;;;5108230;28;20283;-84
2022/12/19 10:33:43;;;;;;;49.45;25.25;;;5.30;99.90;;;;;;5103629;28;20199;-84
2022/12/19 10:36:11;;;;;;;43.88;22.73;;;5.40;99.90;;;;;;5104533;28;20227;-84
2022/12/19 10:38:45;;;;;;;42.60;24.25;;;5.40;99.90;;;;;;5097606;28;20196;-83
2022/12/19 10:41:18;;;;;;;38.42;23.30;;;5.40;99.90;;;;;;5104698;28;20199;-85
2022/12/19 10:43:53;;;;;;;33.22;22.48;;;5.40;99.90;;;;;;5100905;28;20204;-84
2022/12/19 10:46:28;;;;;;;31.75;23.05;;;5.50;99.90;;;;;;5111652;28;20195;-84
2022/12/19 10:48:54;;;;;;;27.08;21.38;;;5.50;99.90;;;;;;5109610;28;20246;-82
2022/12/19 10:51:24;;;;;;;34.72;22.75;;;5.70;99.90;;;;;;5102937;28;20281;-82
2022/12/19 10:53:55;;;;;;;37.90;24.25;;;5.70;99.90;;;;;;5106415;28;20191;-85
2022/12/19 10:56:26;;;;;;;28.75;20.35;;;5.70;99.90;;;;;;5101630;28;20203;-85
2022/12/19 10:58:57;;;;;;;30.60;20.65;;;5.80;99.90;;;;;;5096303;28;20231;-84
2022/12/19 11:01:26;;;;;;;31.35;21.92;;;5.90;99.90;;;;;;5102493;28;20202;-83
2022/12/19 11:04:10;;;;;;;26.60;19.33;;;5.90;99.90;;;;;;5108046;28;20642;-84
2022/12/19 11:06:45;;;;;;;24.98;17.42;;;6.00;99.90;;;;;;5106896;28;20232;-81
2022/12/19 11:09:26;;;;;;;35.65;22.67;;;6.00;99.90;;;;;;5096062;28;20223;-83
2022/12/19 11:12:10;;;;;;;21.95;16.00;;;6.10;99.90;;;;;;5103194;28;20268;-84
2022/12/19 11:14:40;;;;;;;25.85;18.02;;;6.20;99.90;;;;;;5106020;28;20250;-84
2022/12/19 11:17:36;;;;;;;23.88;17.17;;;6.20;99.90;;;;;;5093654;28;20305;-83
2022/12/19 11:20:12;;;;;;;23.63;17.13;;;6.40;99.90;;;;;;5107020;28;20196;-84
2022/12/19 11:22:45;;;;;;;21.05;16.27;;;6.40;99.90;;;;;;5108459;28;20607;-83
2022/12/19 11:25:17;;;;;;;20.67;16.63;;;6.50;99.90;;;;;;5108967;28;20263;-83
2022/12/19 11:27:48;;;;;;;21.58;16.13;;;6.50;99.90;;;;;;5107139;28;20229;-85
2022/12/19 11:30:21;;;;;;;27.33;18.52;;;6.60;99.90;;;;;;5105376;28;20197;-83
2022/12/19 11:33:06;;;;;;;25.02;17.70;;;6.60;99.90;;;;;;5106283;28;20233;-85
2022/12/19 11:35:44;;;;;;;23.55;17.23;;;6.70;99.90;;;;;;5092337;28;20309;-84
2022/12/19 11:38:15;;;;;;;29.00;16.88;;;6.70;99.90;;;;;;5110498;28;20264;-84
2022/12/19 11:40:47;;;;;;;19.85;16.88;;;6.70;99.90;;;;;;5114707;28;20193;-85
2022/12/19 11:43:20;;;;;;;25.67;19.35;;;6.80;99.90;;;;;;5109533;28;20201;-83
2022/12/19 11:45:56;;;;;;;24.55;18.80;;;6.80;99.90;;;;;;5100195;28;20219;-82
2022/12/19 11:48:32;;;;;;;22.23;17.80;;;6.80;99.90;;;;;;5100421;28;20263;-87
2022/12/19 11:51:06;;;;;;;26.80;20.38;;;6.90;99.90;;;;;;5102720;28;20231;-84
2022/12/19 11:53:42;;;;;;;20.13;16.88;;;7.00;99.90;;;;;;5105677;28;20657;-83
2022/12/19 11:56:13;;;;;;;22.40;18.80;;;7.10;99.90;;;;;;5106830;28;20308;-84
2022/12/19 11:58:41;;;;;;;26.52;20.00;;;7.20;99.90;;;;;;5109143;28;20209;-79
2022/12/19 12:01:18;;;;;;;26.33;19.83;;;7.20;99.90;;;;;;5112453;28;20270;-85
2022/12/19 12:04:08;;;;;;;22.38;18.20;;;7.10;99.90;;;;;;5110118;28;20636;-82
2022/12/19 12:06:40;;;;;;;23.15;18.25;;;7.20;99.90;;;;;;5107260;28;20208;-82
2022/12/19 12:09:19;;;;;;;19.83;16.98;;;7.30;99.90;;;;;;5111286;28;20202;-81
2022/12/19 12:11:53;;;;;;;20.08;16.25;;;7.20;99.90;;;;;;5111101;28;20709;-84
2022/12/19 12:14:25;;;;;;;22.25;18.00;;;7.30;99.90;;;;;;5106953;28;20214;-86
2022/12/19 12:17:15;;;;;;;21.00;17.52;;;7.30;99.90;;;;;;5109207;28;20419;-84
2022/12/19 12:19:54;;;;;;;25.52;19.20;;;7.30;99.90;;;;;;5111078;28;20198;-81
2022/12/19 12:22:40;;;;;;;23.50;18.75;;;7.40;99.90;;;;;;5100210;28;20205;-85
2022/12/19 12:25:22;;;;;;;22.13;18.25;;;7.40;99.90;;;;;;5112017;28;20249;-83
2022/12/19 12:27:57;;;;;;;24.55;18.88;;;7.50;99.90;;;;;;5107849;28;20205;-81
2022/12/19 12:30:25;;;;;;;22.70;17.52;;;7.50;99.90;;;;;;5112221;28;20233;-84
2022/12/19 12:33:08;;;;;;;24.80;18.45;;;7.60;99.90;;;;;;5108940;28;20265;-84
2022/12/19 12:35:38;;;;;;;19.45;15.88;;;7.70;99.90;;;;;;5105281;28;20278;-84
2022/12/19 12:38:23;;;;;;;21.50;17.00;;;7.80;99.90;;;;;;5107793;28;20206;-82
2022/12/19 12:41:17;;;;;;;22.88;17.63;;;7.80;99.90;;;;;;5106976;28;20206;-87
2022/12/19 12:44:06;;;;;;;21.95;15.85;;;7.80;99.90;;;;;;5109673;28;20209;-84
2022/12/19 12:46:39;;;;;;;26.35;19.70;;;7.80;99.90;;;;;;5111140;28;20338;-84
2022/12/19 12:49:11;;;;;;;25.08;16.90;;;7.80;99.90;;;;;;5114026;28;20214;-83
2022/12/19 12:51:39;;;;;;;22.30;18.48;;;7.70;99.90;;;;;;5113826;28;20212;-82
2022/12/19 12:54:11;;;;;;;19.45;16.00;;;7.80;99.90;;;;;;5110321;28;20265;-83
2022/12/19 12:56:41;;;;;;;24.45;17.20;;;7.80;99.90;;;;;;5113595;28;20206;-80
2022/12/19 12:59:22;;;;;;;23.88;17.85;;;7.90;99.90;;;;;;5101385;28;20229;-85
2022/12/19 13:01:53;;;;;;;24.48;18.25;;;7.90;99.90;;;;;;5106075;28;20201;-84